sensor_id;sensor_type;location;lat;lon;timestamp;P1;durP1;ratioP1;P2;durP2;ratioP2
3311;SDS011;1668;49.648;8.570;2022-07-11T00:01:10;3.80;;;2.37;;
3311;SDS011;1668;49.648;8.570;2022-07-11T00:03:39;3.33;;;2.60;;
3311;SDS011;1668;49.648;8.570;2022-07-11T00:06:06;5.00;;;2.73;;
3311;SDS011;1668;49.648;8.570;2022-07-11T00:08:33;5.13;;;2.80;;
3311;SDS011;1668;49.648;8.570;2022-07-11T00:10:59;5.30;;;2.60;;
3311;SDS011;1668;49.648;8.570;2022-07-11T00:13:27;5.67;;;2.80;;
3311;SDS011;1668;49.648;8.570;2022-07-11T00:15:54;3.57;;;2.60;;
3311;SDS011;1668;49.648;8.570;2022-07-11T00:18:21;6.90;;;3.20;;
3311;SDS011;1668;49.648;8.570;2022-07-11T00:20:50;4.00;;;3.07;;
3311;SDS011;1668;49.648;8.570;2022-07-11T00:23:17;3.23;;;2.73;;
3311;SDS011;1668;49.648;8.570;2022-07-11T00:25:44;4.20;;;2.80;;
3311;SDS011;1668;49.648;8.570;2022-07-11T00:28:11;3.30;;;3.00;;
3311;SDS011;1668;49.648;8.570;2022-07-11T00:30:38;3.50;;;2.53;;
3311;SDS011;1668;49.648;8.570;2022-07-11T00:33:05;4.23;;;2.73;;
3311;SDS011;1668;49.648;8.570;2022-07-11T00:35:32;3.37;;;2.70;;
3311;SDS011;1668;49.648;8.570;2022-07-11T00:38:00;6.20;;;2.87;;
3311;SDS011;1668;49.648;8.570;2022-07-11T00:40:27;2.50;;;2.30;;
3311;SDS011;1668;49.648;8.570;2022-07-11T00:42:54;2.97;;;2.60;;
3311;SDS011;1668;49.648;8.570;2022-07-11T00:45:21;4.90;;;2.70;;
3311;SDS011;1668;49.648;8.570;2022-07-11T00:47:48;3.83;;;2.63;;
3311;SDS011;1668;49.648;8.570;2022-07-11T00:50:15;3.20;;;2.63;;
3311;SDS011;1668;49.648;8.570;2022-07-11T00:52:42;3.70;;;2.70;;
3311;SDS011;1668;49.648;8.570;2022-07-11T00:55:11;6.03;;;3.20;;
3311;SDS011;1668;49.648;8.570;2022-07-11T00:57:38;4.30;;;2.80;;
3311;SDS011;1668;49.648;8.570;2022-07-11T01:00:06;4.60;;;2.60;;
3311;SDS011;1668;49.648;8.570;2022-07-11T01:02:34;4.33;;;2.97;;
3311;SDS011;1668;49.648;8.570;2022-07-11T01:05:01;2.70;;;2.50;;
3311;SDS011;1668;49.648;8.570;2022-07-11T01:07:29;4.33;;;3.00;;
3311;SDS011;1668;49.648;8.570;2022-07-11T01:09:56;3.20;;;2.70;;
3311;SDS011;1668;49.648;8.570;2022-07-11T01:12:24;3.40;;;3.07;;
3311;SDS011;1668;49.648;8.570;2022-07-11T01:14:51;4.67;;;3.40;;
3311;SDS011;1668;49.648;8.570;2022-07-11T01:17:19;5.03;;;2.80;;
3311;SDS011;1668;49.648;8.570;2022-07-11T01:19:46;5.30;;;3.47;;
3311;SDS011;1668;49.648;8.570;2022-07-11T01:22:13;5.23;;;3.43;;
3311;SDS011;1668;49.648;8.570;2022-07-11T01:24:42;4.80;;;3.33;;
3311;SDS011;1668;49.648;8.570;2022-07-11T01:27:10;3.43;;;3.10;;
3311;SDS011;1668;49.648;8.570;2022-07-11T01:29:38;4.30;;;3.13;;
3311;SDS011;1668;49.648;8.570;2022-07-11T01:32:05;6.00;;;3.07;;
3311;SDS011;1668;49.648;8.570;2022-07-11T01:34:33;6.03;;;3.40;;
3311;SDS011;1668;49.648;8.570;2022-07-11T01:37:00;3.83;;;2.80;;
3311;SDS011;1668;49.648;8.570;2022-07-11T01:39:27;5.03;;;3.30;;
3311;SDS011;1668;49.648;8.570;2022-07-11T01:41:57;3.43;;;2.73;;
3311;SDS011;1668;49.648;8.570;2022-07-11T01:44:24;3.53;;;2.93;;
3311;SDS011;1668;49.648;8.570;2022-07-11T01:46:51;5.33;;;3.40;;
3311;SDS011;1668;49.648;8.570;2022-07-11T01:49:18;4.07;;;3.20;;
3311;SDS011;1668;49.648;8.570;2022-07-11T01:51:45;6.60;;;3.37;;
3311;SDS011;1668;49.648;8.570;2022-07-11T01:54:13;4.80;;;3.63;;
3311;SDS011;1668;49.648;8.570;2022-07-11T01:56:40;3.90;;;3.20;;
3311;SDS011;1668;49.648;8.570;2022-07-11T01:59:09;4.80;;;3.30;;
3311;SDS011;1668;49.648;8.570;2022-07-11T02:01:35;3.27;;;2.90;;
3311;SDS011;1668;49.648;8.570;2022-07-11T02:04:02;4.53;;;3.40;;
3311;SDS011;1668;49.648;8.570;2022-07-11T02:06:30;3.97;;;3.47;;
3311;SDS011;1668;49.648;8.570;2022-07-11T02:08:57;5.37;;;3.10;;
3311;SDS011;1668;49.648;8.570;2022-07-11T02:11:24;4.30;;;3.10;;
3311;SDS011;1668;49.648;8.570;2022-07-11T02:13:51;4.57;;;3.30;;
3311;SDS011;1668;49.648;8.570;2022-07-11T02:16:20;4.20;;;3.57;;
3311;SDS011;1668;49.648;8.570;2022-07-11T02:18:47;4.67;;;3.43;;
3311;SDS011;1668;49.648;8.570;2022-07-11T02:21:14;4.60;;;3.77;;
3311;SDS011;1668;49.648;8.570;2022-07-11T02:23:41;4.63;;;3.60;;
3311;SDS011;1668;49.648;8.570;2022-07-11T02:26:08;5.87;;;3.73;;
3311;SDS011;1668;49.648;8.570;2022-07-11T02:28:35;5.57;;;4.37;;
3311;SDS011;1668;49.648;8.570;2022-07-11T02:31:02;5.83;;;3.80;;
3311;SDS011;1668;49.648;8.570;2022-07-11T02:33:31;5.40;;;3.43;;
3311;SDS011;1668;49.648;8.570;2022-07-11T02:35:58;4.40;;;3.40;;
3311;SDS011;1668;49.648;8.570;2022-07-11T02:38:25;6.10;;;3.70;;
3311;SDS011;1668;49.648;8.570;2022-07-11T02:40:52;4.40;;;3.47;;
3311;SDS011;1668;49.648;8.570;2022-07-11T02:43:19;3.73;;;3.43;;
3311;SDS011;1668;49.648;8.570;2022-07-11T02:45:46;4.43;;;3.80;;
3311;SDS011;1668;49.648;8.570;2022-07-11T02:48:13;5.80;;;4.00;;
3311;SDS011;1668;49.648;8.570;2022-07-11T02:50:41;5.93;;;3.87;;
3311;SDS011;1668;49.648;8.570;2022-07-11T02:53:08;4.20;;;3.80;;
3311;SDS011;1668;49.648;8.570;2022-07-11T02:55:35;4.70;;;3.37;;
3311;SDS011;1668;49.648;8.570;2022-07-11T02:58:02;5.27;;;3.90;;
3311;SDS011;1668;49.648;8.570;2022-07-11T03:00:29;5.13;;;4.00;;
3311;SDS011;1668;49.648;8.570;2022-07-11T03:02:57;4.23;;;3.83;;
3311;SDS011;1668;49.648;8.570;2022-07-11T03:05:24;4.60;;;4.03;;
3311;SDS011;1668;49.648;8.570;2022-07-11T03:07:53;4.73;;;3.83;;
3311;SDS011;1668;49.648;8.570;2022-07-11T03:10:20;4.17;;;3.77;;
3311;SDS011;1668;49.648;8.570;2022-07-11T03:12:51;5.93;;;4.10;;
3311;SDS011;1668;49.648;8.570;2022-07-11T03:15:18;8.23;;;4.10;;
3311;SDS011;1668;49.648;8.570;2022-07-11T03:17:46;5.70;;;4.37;;
3311;SDS011;1668;49.648;8.570;2022-07-11T03:20:13;4.70;;;3.80;;
3311;SDS011;1668;49.648;8.570;2022-07-11T03:22:40;5.10;;;4.40;;
3311;SDS011;1668;49.648;8.570;2022-07-11T03:25:09;4.73;;;4.23;;
3311;SDS011;1668;49.648;8.570;2022-07-11T03:27:36;5.90;;;4.60;;
3311;SDS011;1668;49.648;8.570;2022-07-11T03:30:03;5.90;;;4.67;;
3311;SDS011;1668;49.648;8.570;2022-07-11T03:32:31;6.40;;;4.43;;
3311;SDS011;1668;49.648;8.570;2022-07-11T03:34:58;5.60;;;4.30;;
3311;SDS011;1668;49.648;8.570;2022-07-11T03:37:42;5.63;;;4.07;;
3311;SDS011;1668;49.648;8.570;2022-07-11T03:40:11;5.93;;;4.27;;
3311;SDS011;1668;49.648;8.570;2022-07-11T03:42:38;5.23;;;4.43;;
3311;SDS011;1668;49.648;8.570;2022-07-11T03:45:05;7.43;;;4.33;;
3311;SDS011;1668;49.648;8.570;2022-07-11T03:47:33;4.40;;;4.00;;
3311;SDS011;1668;49.648;8.570;2022-07-11T03:50:01;4.17;;;3.77;;
3311;SDS011;1668;49.648;8.570;2022-07-11T03:52:29;4.23;;;3.83;;
3311;SDS011;1668;49.648;8.570;2022-07-11T03:54:57;4.23;;;3.70;;
3311;SDS011;1668;49.648;8.570;2022-07-11T03:57:25;4.23;;;3.63;;
3311;SDS011;1668;49.648;8.570;2022-07-11T03:59:52;5.40;;;3.50;;
3311;SDS011;1668;49.648;8.570;2022-07-11T04:02:19;7.13;;;4.20;;
3311;SDS011;1668;49.648;8.570;2022-07-11T04:04:46;6.70;;;4.10;;
3311;SDS011;1668;49.648;8.570;2022-07-11T04:07:13;6.27;;;4.40;;
3311;SDS011;1668;49.648;8.570;2022-07-11T04:09:40;5.90;;;3.90;;
3311;SDS011;1668;49.648;8.570;2022-07-11T04:12:07;5.00;;;4.00;;
3311;SDS011;1668;49.648;8.570;2022-07-11T04:14:36;6.20;;;4.30;;
3311;SDS011;1668;49.648;8.570;2022-07-11T04:17:03;8.67;;;4.10;;
3311;SDS011;1668;49.648;8.570;2022-07-11T04:19:30;6.80;;;4.57;;
3311;SDS011;1668;49.648;8.570;2022-07-11T04:21:57;4.73;;;4.13;;
3311;SDS011;1668;49.648;8.570;2022-07-11T04:24:24;4.77;;;3.90;;
3311;SDS011;1668;49.648;8.570;2022-07-11T04:26:51;7.53;;;4.30;;
3311;SDS011;1668;49.648;8.570;2022-07-11T04:29:18;4.70;;;4.20;;
3311;SDS011;1668;49.648;8.570;2022-07-11T04:31:46;5.03;;;4.17;;
3311;SDS011;1668;49.648;8.570;2022-07-11T04:34:13;5.40;;;4.30;;
3311;SDS011;1668;49.648;8.570;2022-07-11T04:36:40;4.47;;;4.07;;
3311;SDS011;1668;49.648;8.570;2022-07-11T04:39:06;4.47;;;4.07;;
3311;SDS011;1668;49.648;8.570;2022-07-11T04:41:33;5.60;;;4.50;;
3311;SDS011;1668;49.648;8.570;2022-07-11T04:44:00;7.33;;;3.90;;
3311;SDS011;1668;49.648;8.570;2022-07-11T04:46:27;10.73;;;4.57;;
3311;SDS011;1668;49.648;8.570;2022-07-11T04:48:57;5.70;;;3.97;;
3311;SDS011;1668;49.648;8.570;2022-07-11T04:51:24;4.33;;;3.90;;
3311;SDS011;1668;49.648;8.570;2022-07-11T04:53:51;7.23;;;4.50;;
3311;SDS011;1668;49.648;8.570;2022-07-11T04:56:18;4.60;;;4.10;;
3311;SDS011;1668;49.648;8.570;2022-07-11T04:58:45;6.87;;;4.17;;
3311;SDS011;1668;49.648;8.570;2022-07-11T05:01:12;9.87;;;4.53;;
3311;SDS011;1668;49.648;8.570;2022-07-11T05:03:39;5.00;;;4.50;;
3311;SDS011;1668;49.648;8.570;2022-07-11T05:06:07;5.10;;;4.50;;
3311;SDS011;1668;49.648;8.570;2022-07-11T05:08:34;7.53;;;5.17;;
3311;SDS011;1668;49.648;8.570;2022-07-11T05:11:02;5.20;;;3.97;;
3311;SDS011;1668;49.648;8.570;2022-07-11T05:13:29;6.20;;;4.40;;
3311;SDS011;1668;49.648;8.570;2022-07-11T05:15:56;7.23;;;4.37;;
3311;SDS011;1668;49.648;8.570;2022-07-11T05:18:23;8.30;;;4.80;;
3311;SDS011;1668;49.648;8.570;2022-07-11T05:20:49;15.30;;;5.13;;
3311;SDS011;1668;49.648;8.570;2022-07-11T05:23:18;6.43;;;4.47;;
3311;SDS011;1668;49.648;8.570;2022-07-11T05:25:45;6.30;;;4.27;;
3311;SDS011;1668;49.648;8.570;2022-07-11T05:28:12;5.63;;;3.70;;
3311;SDS011;1668;49.648;8.570;2022-07-11T05:30:38;7.03;;;4.17;;
3311;SDS011;1668;49.648;8.570;2022-07-11T05:33:06;9.73;;;4.63;;
3311;SDS011;1668;49.648;8.570;2022-07-11T05:35:32;10.23;;;5.13;;
3311;SDS011;1668;49.648;8.570;2022-07-11T05:37:59;8.40;;;4.73;;
3311;SDS011;1668;49.648;8.570;2022-07-11T05:40:28;7.13;;;3.93;;
3311;SDS011;1668;49.648;8.570;2022-07-11T05:42:55;6.53;;;4.13;;
3311;SDS011;1668;49.648;8.570;2022-07-11T05:45:21;4.80;;;4.03;;
3311;SDS011;1668;49.648;8.570;2022-07-11T05:47:49;4.50;;;4.00;;
3311;SDS011;1668;49.648;8.570;2022-07-11T05:50:15;5.43;;;4.70;;
3311;SDS011;1668;49.648;8.570;2022-07-11T05:52:42;6.33;;;4.10;;
3311;SDS011;1668;49.648;8.570;2022-07-11T05:55:09;5.03;;;4.03;;
3311;SDS011;1668;49.648;8.570;2022-07-11T05:57:37;6.47;;;4.57;;
3311;SDS011;1668;49.648;8.570;2022-07-11T06:00:05;4.10;;;3.70;;
3311;SDS011;1668;49.648;8.570;2022-07-11T06:02:32;4.63;;;3.70;;
3311;SDS011;1668;49.648;8.570;2022-07-11T06:04:59;7.03;;;4.57;;
3311;SDS011;1668;49.648;8.570;2022-07-11T06:07:26;7.17;;;4.23;;
3311;SDS011;1668;49.648;8.570;2022-07-11T06:10:10;6.50;;;3.63;;
3311;SDS011;1668;49.648;8.570;2022-07-11T06:12:39;9.63;;;4.43;;
3311;SDS011;1668;49.648;8.570;2022-07-11T06:15:07;6.93;;;4.30;;
3311;SDS011;1668;49.648;8.570;2022-07-11T06:17:34;7.63;;;4.00;;
3311;SDS011;1668;49.648;8.570;2022-07-11T06:20:01;8.30;;;3.97;;
3311;SDS011;1668;49.648;8.570;2022-07-11T06:22:28;6.50;;;4.20;;
3311;SDS011;1668;49.648;8.570;2022-07-11T06:24:55;5.07;;;4.10;;
3311;SDS011;1668;49.648;8.570;2022-07-11T06:27:22;19.43;;;5.33;;
3311;SDS011;1668;49.648;8.570;2022-07-11T06:29:51;7.80;;;4.23;;
3311;SDS011;1668;49.648;8.570;2022-07-11T06:32:17;5.13;;;3.27;;
3311;SDS011;1668;49.648;8.570;2022-07-11T06:34:44;4.90;;;3.40;;
3311;SDS011;1668;49.648;8.570;2022-07-11T06:37:11;5.70;;;3.27;;
3311;SDS011;1668;49.648;8.570;2022-07-11T06:39:38;4.90;;;2.80;;
3311;SDS011;1668;49.648;8.570;2022-07-11T06:42:05;5.43;;;2.67;;
3311;SDS011;1668;49.648;8.570;2022-07-11T06:44:32;4.33;;;2.77;;
3311;SDS011;1668;49.648;8.570;2022-07-11T06:47:00;3.40;;;2.53;;
3311;SDS011;1668;49.648;8.570;2022-07-11T06:49:27;4.03;;;2.77;;
3311;SDS011;1668;49.648;8.570;2022-07-11T06:51:54;3.30;;;2.70;;
3311;SDS011;1668;49.648;8.570;2022-07-11T06:54:20;5.83;;;3.60;;
3311;SDS011;1668;49.648;8.570;2022-07-11T06:56:47;4.57;;;2.77;;
3311;SDS011;1668;49.648;8.570;2022-07-11T06:59:14;4.80;;;3.20;;
3311;SDS011;1668;49.648;8.570;2022-07-11T07:01:41;2.90;;;2.57;;
3311;SDS011;1668;49.648;8.570;2022-07-11T07:04:10;4.90;;;2.63;;
3311;SDS011;1668;49.648;8.570;2022-07-11T07:06:37;4.57;;;2.53;;
3311;SDS011;1668;49.648;8.570;2022-07-11T07:09:04;3.70;;;2.63;;
3311;SDS011;1668;49.648;8.570;2022-07-11T07:11:31;5.60;;;2.60;;
3311;SDS011;1668;49.648;8.570;2022-07-11T07:13:58;9.30;;;2.53;;
3311;SDS011;1668;49.648;8.570;2022-07-11T07:16:25;6.77;;;2.87;;
3311;SDS011;1668;49.648;8.570;2022-07-11T07:18:52;6.33;;;2.50;;
3311;SDS011;1668;49.648;8.570;2022-07-11T07:21:20;5.40;;;2.30;;
3311;SDS011;1668;49.648;8.570;2022-07-11T07:23:47;4.67;;;2.80;;
3311;SDS011;1668;49.648;8.570;2022-07-11T07:26:14;5.93;;;2.87;;
3311;SDS011;1668;49.648;8.570;2022-07-11T07:28:41;4.37;;;2.63;;
3311;SDS011;1668;49.648;8.570;2022-07-11T07:31:08;3.70;;;2.27;;
3311;SDS011;1668;49.648;8.570;2022-07-11T07:33:37;7.83;;;3.10;;
3311;SDS011;1668;49.648;8.570;2022-07-11T07:36:04;2.80;;;2.50;;
3311;SDS011;1668;49.648;8.570;2022-07-11T07:38:32;3.97;;;2.23;;
3311;SDS011;1668;49.648;8.570;2022-07-11T07:40:59;4.20;;;2.30;;
3311;SDS011;1668;49.648;8.570;2022-07-11T07:43:26;6.43;;;2.43;;
3311;SDS011;1668;49.648;8.570;2022-07-11T07:45:53;4.00;;;2.20;;
3311;SDS011;1668;49.648;8.570;2022-07-11T07:48:20;5.70;;;3.00;;
3311;SDS011;1668;49.648;8.570;2022-07-11T07:50:47;5.83;;;2.50;;
3311;SDS011;1668;49.648;8.570;2022-07-11T07:53:14;3.60;;;2.30;;
3311;SDS011;1668;49.648;8.570;2022-07-11T07:55:43;4.93;;;2.60;;
3311;SDS011;1668;49.648;8.570;2022-07-11T07:58:09;3.80;;;2.37;;
3311;SDS011;1668;49.648;8.570;2022-07-11T08:00:36;5.07;;;2.50;;
3311;SDS011;1668;49.648;8.570;2022-07-11T08:03:17;4.33;;;2.37;;
3311;SDS011;1668;49.648;8.570;2022-07-11T08:05:44;4.27;;;1.80;;
3311;SDS011;1668;49.648;8.570;2022-07-11T08:08:11;3.73;;;2.57;;
3311;SDS011;1668;49.648;8.570;2022-07-11T08:10:38;5.87;;;2.30;;
3311;SDS011;1668;49.648;8.570;2022-07-11T08:13:06;3.17;;;2.60;;
3311;SDS011;1668;49.648;8.570;2022-07-11T08:15:34;5.57;;;2.37;;
3311;SDS011;1668;49.648;8.570;2022-07-11T08:18:01;3.40;;;2.03;;
3311;SDS011;1668;49.648;8.570;2022-07-11T08:20:30;5.63;;;2.67;;
3311;SDS011;1668;49.648;8.570;2022-07-11T08:22:59;3.87;;;2.37;;
3311;SDS011;1668;49.648;8.570;2022-07-11T08:25:27;5.13;;;2.50;;
3311;SDS011;1668;49.648;8.570;2022-07-11T08:27:55;5.83;;;2.10;;
3311;SDS011;1668;49.648;8.570;2022-07-11T08:30:24;3.73;;;2.57;;
3311;SDS011;1668;49.648;8.570;2022-07-11T08:32:51;4.77;;;2.30;;
3311;SDS011;1668;49.648;8.570;2022-07-11T08:35:18;6.90;;;2.47;;
3311;SDS011;1668;49.648;8.570;2022-07-11T08:37:45;6.10;;;2.30;;
3311;SDS011;1668;49.648;8.570;2022-07-11T08:40:12;3.67;;;1.80;;
3311;SDS011;1668;49.648;8.570;2022-07-11T08:42:40;3.50;;;2.30;;
3311;SDS011;1668;49.648;8.570;2022-07-11T08:45:10;5.10;;;2.10;;
3311;SDS011;1668;49.648;8.570;2022-07-11T08:47:38;4.83;;;2.37;;
3311;SDS011;1668;49.648;8.570;2022-07-11T08:50:06;4.73;;;2.30;;
3311;SDS011;1668;49.648;8.570;2022-07-11T08:52:34;3.33;;;2.50;;
3311;SDS011;1668;49.648;8.570;2022-07-11T08:55:03;7.10;;;2.33;;
3311;SDS011;1668;49.648;8.570;2022-07-11T08:57:32;5.20;;;2.20;;
3311;SDS011;1668;49.648;8.570;2022-07-11T09:00:00;3.70;;;1.60;;
3311;SDS011;1668;49.648;8.570;2022-07-11T09:02:30;4.20;;;1.60;;
3311;SDS011;1668;49.648;8.570;2022-07-11T09:05:00;3.90;;;1.80;;
3311;SDS011;1668;49.648;8.570;2022-07-11T09:07:31;4.77;;;2.30;;
3311;SDS011;1668;49.648;8.570;2022-07-11T09:09:58;3.90;;;2.40;;
3311;SDS011;1668;49.648;8.570;2022-07-11T09:12:25;9.17;;;2.20;;
3311;SDS011;1668;49.648;8.570;2022-07-11T09:14:53;6.63;;;2.20;;
3311;SDS011;1668;49.648;8.570;2022-07-11T09:17:23;5.23;;;2.00;;
3311;SDS011;1668;49.648;8.570;2022-07-11T09:19:51;3.20;;;1.90;;
3311;SDS011;1668;49.648;8.570;2022-07-11T09:22:20;3.87;;;1.90;;
3311;SDS011;1668;49.648;8.570;2022-07-11T09:25:05;3.63;;;2.17;;
3311;SDS011;1668;49.648;8.570;2022-07-11T09:27:56;2.90;;;2.03;;
3311;SDS011;1668;49.648;8.570;2022-07-11T09:30:29;5.80;;;2.37;;
3311;SDS011;1668;49.648;8.570;2022-07-11T09:32:58;4.20;;;1.80;;
3311;SDS011;1668;49.648;8.570;2022-07-11T09:35:26;4.70;;;2.37;;
3311;SDS011;1668;49.648;8.570;2022-07-11T09:37:57;2.60;;;1.60;;
3311;SDS011;1668;49.648;8.570;2022-07-11T09:40:24;4.00;;;1.93;;
3311;SDS011;1668;49.648;8.570;2022-07-11T09:42:53;4.10;;;1.60;;
3311;SDS011;1668;49.648;8.570;2022-07-11T09:45:21;3.30;;;2.07;;
3311;SDS011;1668;49.648;8.570;2022-07-11T09:47:49;2.50;;;2.10;;
3311;SDS011;1668;49.648;8.570;2022-07-11T09:50:17;4.33;;;2.20;;
3311;SDS011;1668;49.648;8.570;2022-07-11T09:52:58;3.60;;;1.83;;
3311;SDS011;1668;49.648;8.570;2022-07-11T09:55:27;5.00;;;2.37;;
3311;SDS011;1668;49.648;8.570;2022-07-11T09:57:54;7.13;;;2.33;;
3311;SDS011;1668;49.648;8.570;2022-07-11T10:00:22;3.17;;;2.00;;
3311;SDS011;1668;49.648;8.570;2022-07-11T10:02:50;5.83;;;2.23;;
3311;SDS011;1668;49.648;8.570;2022-07-11T10:05:18;3.30;;;2.30;;
3311;SDS011;1668;49.648;8.570;2022-07-11T10:07:46;3.77;;;2.10;;
3311;SDS011;1668;49.648;8.570;2022-07-11T10:10:14;4.27;;;2.20;;
3311;SDS011;1668;49.648;8.570;2022-07-11T10:12:41;5.20;;;2.47;;
3311;SDS011;1668;49.648;8.570;2022-07-11T10:15:10;3.70;;;2.60;;
3311;SDS011;1668;49.648;8.570;2022-07-11T10:17:41;5.67;;;2.47;;
3311;SDS011;1668;49.648;8.570;2022-07-11T10:20:15;2.63;;;2.10;;
3311;SDS011;1668;49.648;8.570;2022-07-11T10:22:49;3.80;;;2.10;;
3311;SDS011;1668;49.648;8.570;2022-07-11T10:25:24;4.27;;;2.57;;
3311;SDS011;1668;49.648;8.570;2022-07-11T10:28:08;3.30;;;2.30;;
3311;SDS011;1668;49.648;8.570;2022-07-11T10:30:46;4.90;;;2.80;;
3311;SDS011;1668;49.648;8.570;2022-07-11T10:33:15;2.83;;;2.43;;
3311;SDS011;1668;49.648;8.570;2022-07-11T10:35:44;6.47;;;2.87;;
3311;SDS011;1668;49.648;8.570;2022-07-11T10:38:12;4.03;;;2.90;;
3311;SDS011;1668;49.648;8.570;2022-07-11T10:40:41;6.50;;;2.70;;
3311;SDS011;1668;49.648;8.570;2022-07-11T10:43:10;3.17;;;2.63;;
3311;SDS011;1668;49.648;8.570;2022-07-11T10:48:31;3.33;;;2.80;;
3311;SDS011;1668;49.648;8.570;2022-07-11T10:51:09;6.00;;;2.80;;
3311;SDS011;1668;49.648;8.570;2022-07-11T10:53:46;6.13;;;3.40;;
3311;SDS011;1668;49.648;8.570;2022-07-11T10:56:24;5.70;;;4.40;;
3311;SDS011;1668;49.648;8.570;2022-07-11T10:59:03;7.73;;;4.40;;
3311;SDS011;1668;49.648;8.570;2022-07-11T11:04:42;7.03;;;4.30;;
3311;SDS011;1668;49.648;8.570;2022-07-11T11:10:00;4.43;;;3.60;;
3311;SDS011;1668;49.648;8.570;2022-07-11T11:15:40;3.90;;;3.13;;
3311;SDS011;1668;49.648;8.570;2022-07-11T11:24:01;4.97;;;3.60;;
3311;SDS011;1668;49.648;8.570;2022-07-11T11:26:49;4.67;;;3.50;;
3311;SDS011;1668;49.648;8.570;2022-07-11T11:29:25;5.73;;;2.80;;
3311;SDS011;1668;49.648;8.570;2022-07-11T11:31:56;4.70;;;3.20;;
3311;SDS011;1668;49.648;8.570;2022-07-11T11:34:24;6.23;;;3.47;;
3311;SDS011;1668;49.648;8.570;2022-07-11T11:36:57;4.57;;;2.97;;
3311;SDS011;1668;49.648;8.570;2022-07-11T11:39:26;3.97;;;2.87;;
3311;SDS011;1668;49.648;8.570;2022-07-11T11:42:00;4.33;;;3.63;;
3311;SDS011;1668;49.648;8.570;2022-07-11T11:44:29;5.03;;;3.23;;
3311;SDS011;1668;49.648;8.570;2022-07-11T11:46:58;7.00;;;4.20;;
3311;SDS011;1668;49.648;8.570;2022-07-11T11:49:25;4.70;;;3.20;;
3311;SDS011;1668;49.648;8.570;2022-07-11T11:51:53;3.10;;;2.70;;
3311;SDS011;1668;49.648;8.570;2022-07-11T11:54:21;2.33;;;2.13;;
3311;SDS011;1668;49.648;8.570;2022-07-11T11:56:49;3.17;;;2.60;;
3311;SDS011;1668;49.648;8.570;2022-07-11T11:59:16;2.63;;;2.27;;
3311;SDS011;1668;49.648;8.570;2022-07-11T12:01:44;2.93;;;2.63;;
3311;SDS011;1668;49.648;8.570;2022-07-11T12:04:14;3.30;;;2.60;;
3311;SDS011;1668;49.648;8.570;2022-07-11T12:06:42;4.67;;;2.70;;
3311;SDS011;1668;49.648;8.570;2022-07-11T12:09:10;3.07;;;2.73;;
3311;SDS011;1668;49.648;8.570;2022-07-11T12:11:38;3.03;;;2.73;;
3311;SDS011;1668;49.648;8.570;2022-07-11T12:14:07;2.53;;;2.07;;
3311;SDS011;1668;49.648;8.570;2022-07-11T12:16:38;2.13;;;1.93;;
3311;SDS011;1668;49.648;8.570;2022-07-11T12:19:12;2.23;;;1.87;;
3311;SDS011;1668;49.648;8.570;2022-07-11T12:21:41;4.67;;;2.33;;
3311;SDS011;1668;49.648;8.570;2022-07-11T12:24:10;2.50;;;2.10;;
3311;SDS011;1668;49.648;8.570;2022-07-11T12:26:38;2.93;;;2.40;;
3311;SDS011;1668;49.648;8.570;2022-07-11T12:29:10;2.60;;;2.17;;
3311;SDS011;1668;49.648;8.570;2022-07-11T12:31:45;3.20;;;2.43;;
3311;SDS011;1668;49.648;8.570;2022-07-11T12:34:14;2.30;;;2.10;;
3311;SDS011;1668;49.648;8.570;2022-07-11T12:36:43;4.20;;;1.77;;
3311;SDS011;1668;49.648;8.570;2022-07-11T12:39:20;3.37;;;2.57;;
3311;SDS011;1668;49.648;8.570;2022-07-11T12:41:49;4.10;;;2.90;;
3311;SDS011;1668;49.648;8.570;2022-07-11T12:44:20;2.40;;;2.20;;
3311;SDS011;1668;49.648;8.570;2022-07-11T12:47:06;2.43;;;2.20;;
3311;SDS011;1668;49.648;8.570;2022-07-11T12:49:35;2.27;;;2.07;;
3311;SDS011;1668;49.648;8.570;2022-07-11T12:52:02;2.60;;;2.37;;
3311;SDS011;1668;49.648;8.570;2022-07-11T12:54:30;2.80;;;2.50;;
3311;SDS011;1668;49.648;8.570;2022-07-11T12:57:05;3.27;;;2.00;;
3311;SDS011;1668;49.648;8.570;2022-07-11T12:59:33;3.67;;;2.77;;
3311;SDS011;1668;49.648;8.570;2022-07-11T13:02:02;2.73;;;2.30;;
3311;SDS011;1668;49.648;8.570;2022-07-11T13:04:32;4.20;;;2.30;;
3311;SDS011;1668;49.648;8.570;2022-07-11T13:07:18;8.30;;;3.27;;
3311;SDS011;1668;49.648;8.570;2022-07-11T13:10:10;3.37;;;2.40;;
3311;SDS011;1668;49.648;8.570;2022-07-11T13:12:38;8.20;;;2.50;;
3311;SDS011;1668;49.648;8.570;2022-07-11T13:15:06;2.53;;;2.13;;
3311;SDS011;1668;49.648;8.570;2022-07-11T13:17:39;4.53;;;2.67;;
3311;SDS011;1668;49.648;8.570;2022-07-11T13:20:10;2.50;;;2.30;;
3311;SDS011;1668;49.648;8.570;2022-07-11T13:22:39;2.63;;;2.13;;
3311;SDS011;1668;49.648;8.570;2022-07-11T13:25:06;3.93;;;2.40;;
3311;SDS011;1668;49.648;8.570;2022-07-11T13:27:35;2.80;;;2.20;;
3311;SDS011;1668;49.648;8.570;2022-07-11T13:30:03;4.63;;;2.20;;
3311;SDS011;1668;49.648;8.570;2022-07-11T13:32:36;2.93;;;2.20;;
3311;SDS011;1668;49.648;8.570;2022-07-11T13:35:03;3.10;;;2.10;;
3311;SDS011;1668;49.648;8.570;2022-07-11T13:37:32;2.70;;;2.37;;
3311;SDS011;1668;49.648;8.570;2022-07-11T13:40:03;2.60;;;2.40;;
3311;SDS011;1668;49.648;8.570;2022-07-11T13:42:30;2.40;;;2.10;;
3311;SDS011;1668;49.648;8.570;2022-07-11T13:44:58;4.03;;;2.60;;
3311;SDS011;1668;49.648;8.570;2022-07-11T13:47:27;3.07;;;2.47;;
3311;SDS011;1668;49.648;8.570;2022-07-11T13:49:53;7.50;;;2.33;;
3311;SDS011;1668;49.648;8.570;2022-07-11T13:52:20;3.20;;;2.13;;
3311;SDS011;1668;49.648;8.570;2022-07-11T13:54:49;3.10;;;2.33;;
3311;SDS011;1668;49.648;8.570;2022-07-11T13:57:16;2.80;;;2.13;;
3311;SDS011;1668;49.648;8.570;2022-07-11T13:59:43;2.57;;;2.10;;
3311;SDS011;1668;49.648;8.570;2022-07-11T14:02:10;4.73;;;2.13;;
3311;SDS011;1668;49.648;8.570;2022-07-11T14:04:36;2.93;;;2.40;;
3311;SDS011;1668;49.648;8.570;2022-07-11T14:07:03;2.80;;;2.47;;
3311;SDS011;1668;49.648;8.570;2022-07-11T14:09:32;3.43;;;2.47;;
3311;SDS011;1668;49.648;8.570;2022-07-11T14:12:01;3.10;;;2.33;;
3311;SDS011;1668;49.648;8.570;2022-07-11T14:14:28;3.00;;;2.23;;
3311;SDS011;1668;49.648;8.570;2022-07-11T14:16:55;5.63;;;2.27;;
3311;SDS011;1668;49.648;8.570;2022-07-11T14:19:22;2.73;;;1.90;;
3311;SDS011;1668;49.648;8.570;2022-07-11T14:21:49;3.43;;;2.00;;
3311;SDS011;1668;49.648;8.570;2022-07-11T14:24:16;2.47;;;1.80;;
3311;SDS011;1668;49.648;8.570;2022-07-11T14:26:43;3.03;;;2.30;;
3311;SDS011;1668;49.648;8.570;2022-07-11T14:29:11;2.30;;;2.10;;
3311;SDS011;1668;49.648;8.570;2022-07-11T14:31:38;2.50;;;2.00;;
3311;SDS011;1668;49.648;8.570;2022-07-11T14:34:05;2.50;;;2.30;;
3311;SDS011;1668;49.648;8.570;2022-07-11T14:36:32;2.40;;;2.20;;
3311;SDS011;1668;49.648;8.570;2022-07-11T14:38:59;4.27;;;2.30;;
3311;SDS011;1668;49.648;8.570;2022-07-11T14:41:27;2.70;;;2.20;;
3311;SDS011;1668;49.648;8.570;2022-07-11T14:43:54;4.87;;;2.20;;
3311;SDS011;1668;49.648;8.570;2022-07-11T14:46:23;4.70;;;2.97;;
3311;SDS011;1668;49.648;8.570;2022-07-11T14:48:50;2.77;;;2.27;;
3311;SDS011;1668;49.648;8.570;2022-07-11T14:51:17;9.20;;;2.90;;
3311;SDS011;1668;49.648;8.570;2022-07-11T14:53:44;6.63;;;2.80;;
3311;SDS011;1668;49.648;8.570;2022-07-11T14:56:11;8.63;;;3.40;;
3311;SDS011;1668;49.648;8.570;2022-07-11T14:58:38;4.40;;;2.60;;
3311;SDS011;1668;49.648;8.570;2022-07-11T15:01:06;5.57;;;2.30;;
3311;SDS011;1668;49.648;8.570;2022-07-11T15:03:34;5.10;;;2.37;;
3311;SDS011;1668;49.648;8.570;2022-07-11T15:06:06;3.83;;;2.20;;
3311;SDS011;1668;49.648;8.570;2022-07-11T15:08:34;2.20;;;2.00;;
3311;SDS011;1668;49.648;8.570;2022-07-11T15:11:19;2.73;;;2.30;;
3311;SDS011;1668;49.648;8.570;2022-07-11T15:14:05;2.70;;;2.17;;
3311;SDS011;1668;49.648;8.570;2022-07-11T15:16:33;5.00;;;1.90;;
3311;SDS011;1668;49.648;8.570;2022-07-11T15:19:02;5.33;;;2.70;;
3311;SDS011;1668;49.648;8.570;2022-07-11T15:21:30;4.60;;;2.17;;
3311;SDS011;1668;49.648;8.570;2022-07-11T15:23:59;3.00;;;2.13;;
3311;SDS011;1668;49.648;8.570;2022-07-11T15:26:27;2.33;;;2.13;;
3311;SDS011;1668;49.648;8.570;2022-07-11T15:28:54;3.23;;;2.00;;
3311;SDS011;1668;49.648;8.570;2022-07-11T15:31:22;2.10;;;1.90;;
3311;SDS011;1668;49.648;8.570;2022-07-11T15:33:49;2.90;;;2.17;;
3311;SDS011;1668;49.648;8.570;2022-07-11T15:36:21;3.90;;;2.10;;
3311;SDS011;1668;49.648;8.570;2022-07-11T15:38:48;2.03;;;1.87;;
3311;SDS011;1668;49.648;8.570;2022-07-11T15:41:15;5.00;;;2.17;;